This is the latest recevied weather packets stored in our database for station/object CE4ERM-13. If no packets are shown the sender has not sent any weather packets the latest 10 day(s).
| Time | Temp. | Humidity | Pressure | Rain* | Wind** | Luminosity | Snow |
|---|---|---|---|---|---|---|---|
| 1778053601 | 19.44° C | 41% | 1016.6 hPa | - | - | - | - |
| 1778053150 | 19.44° C | 46% | 1016.1 hPa | - | - | - | - |
| 1778053000 | 19.44° C | 41% | 1012 hPa | - | - | - | - |
| 1778052550 | 20° C | 45% | 1017 hPa | - | - | - | - |
| 1778052400 | 19.44° C | 41% | 1018.3 hPa | - | - | - | - |
| 1778051950 | 20° C | 45% | 1015.5 hPa | - | - | - | - |
| 1778051800 | 19.44° C | 41% | 1016.6 hPa | - | - | - | - |
| 1778051200 | 19.44° C | 41% | 1019.6 hPa | - | - | - | - |
| 1778050750 | 20° C | 45% | 1017 hPa | - | - | - | - |
| 1778050150 | 20.56° C | 44% | 1017.2 hPa | - | - | - | - |
| 1778050000 | 20° C | 41% | 1017.4 hPa | - | - | - | - |
| 1778049400 | 20° C | 41% | 1015 hPa | - | - | - | - |
| 1778048949 | 21.11° C | 44% | 1017.5 hPa | - | - | - | - |
| 1778048349 | 21.11° C | 44% | 1016.2 hPa | - | - | - | - |
| 1778048199 | 20° C | 42% | 1018.3 hPa | - | - | - | - |
| 1778047599 | 20° C | 41% | 1017.6 hPa | - | - | - | - |
| 1778046999 | 20° C | 42% | 1017.3 hPa | - | - | - | - |
| 1778046548 | 21.67° C | 43% | 1018.6 hPa | - | - | - | - |
| 1778046399 | 20° C | 41% | 1016.7 hPa | - | - | - | - |
| 1778045799 | 20° C | 42% | 1017.8 hPa | - | - | - | - |
| 1778045413 | 22.22° C | 43% | 1016.1 hPa | - | - | - | - |
| 1778045413 | 22.22° C | 44% | 1016.6 hPa | - | - | - | - |
| 1778045347 | 22.22° C | 43% | 1016.1 hPa | - | - | - | - |
| 1778044747 | 22.22° C | 44% | 1016.6 hPa | - | - | - | - |
| 1778044599 | 20° C | 41% | 1017.7 hPa | - | - | - | - |
* Rain since midnight (hover to see other rain measurements)
** Current wind speed in m/s (hover to see current wind gust speed)